Time;durP1;ratioP1;P1;durP2;ratioP2;P2;SDS_P1;SDS_P2;PMS_P1;PMS_P2;Temp;Humidity;BMP_temperature;BMP_pressure;BME280_temperature;BME280_humidity;BME280_pressure;Samples;Min_cycle;Max_cycle;Signal;HPM_P1;HPM_P2
2022/08/21 00:00:43;;;;;;;3.60;1.50;;;19.10;71.60;;;;;;7357021;19;20434;-46
2022/08/21 00:03:15;;;;;;;2.80;1.90;;;19.10;70.90;;;;;;7374375;19;20406;-46
2022/08/21 00:05:49;;;;;;;5.30;2.00;;;18.90;72.50;;;;;;7380192;19;20435;-46
2022/08/21 00:08:19;;;;;;;3.70;1.93;;;18.70;73.40;;;;;;7383269;19;20380;-46
2022/08/21 00:10:50;;;;;;;2.70;1.83;;;18.50;75.00;;;;;;7379082;19;20417;-46
2022/08/21 00:13:21;;;;;;;5.60;2.57;;;18.40;75.30;;;;;;7378833;19;20419;-46
2022/08/21 00:15:51;;;;;;;2.53;1.67;;;18.30;76.40;;;;;;7377256;19;20372;-46
2022/08/21 00:18:23;;;;;;;2.40;2.00;;;18.30;76.60;;;;;;7385881;19;20416;-46
2022/08/21 00:20:53;;;;;;;2.30;1.80;;;18.30;76.60;;;;;;7379739;19;20360;-46
2022/08/21 00:23:23;;;;;;;2.17;1.70;;;18.50;76.50;;;;;;7379743;19;20798;-46
2022/08/21 00:25:53;;;;;;;3.57;1.93;;;18.60;76.00;;;;;;7382296;19;20380;-46
2022/08/21 00:28:22;;;;;;;4.33;1.80;;;18.50;75.40;;;;;;7380385;19;20365;-46
2022/08/21 00:30:52;;;;;;;3.67;1.93;;;18.40;76.40;;;;;;7375443;19;20437;-46
2022/08/21 00:33:24;;;;;;;2.13;1.93;;;18.30;76.90;;;;;;7372118;19;20742;-46
2022/08/21 00:35:54;;;;;;;2.80;1.70;;;18.30;77.50;;;;;;7375752;19;20387;-46
2022/08/21 00:38:24;;;;;;;3.67;1.93;;;18.40;77.40;;;;;;7377177;19;20946;-46
2022/08/21 00:40:56;;;;;;;3.63;1.90;;;18.40;77.30;;;;;;7374809;19;21009;-46
2022/08/21 00:43:31;;;;;;;2.00;1.43;;;18.50;76.80;;;;;;7374650;19;20423;-46
2022/08/21 00:46:01;;;;;;;2.90;1.90;;;18.50;77.00;;;;;;7375186;19;20420;-46
2022/08/21 00:48:34;;;;;;;2.40;1.83;;;18.50;76.90;;;;;;7375825;19;20905;-46
2022/08/21 00:51:09;;;;;;;4.57;2.40;;;18.50;76.80;;;;;;7375828;19;20796;-46
2022/08/21 00:53:42;;;;;;;5.10;2.10;;;18.50;77.50;;;;;;7376071;19;20428;-46
2022/08/21 00:56:12;;;;;;;3.07;2.27;;;18.50;76.70;;;;;;7373956;19;20767;-46
2022/08/21 00:58:45;;;;;;;3.23;2.20;;;18.40;76.90;;;;;;7359777;19;20371;-46
2022/08/21 01:01:15;;;;;;;3.80;1.90;;;18.40;78.20;;;;;;7366055;19;20439;-47
2022/08/21 01:03:47;;;;;;;3.30;2.00;;;18.20;79.50;;;;;;7379478;19;20364;-46
2022/08/21 01:06:17;;;;;;;1.80;1.70;;;18.10;81.50;;;;;;7376128;19;20372;-47
2022/08/21 01:08:47;;;;;;;3.23;1.63;;;18.20;80.70;;;;;;7376759;19;20423;-47
2022/08/21 01:11:18;;;;;;;3.03;2.23;;;18.10;81.60;;;;;;7374026;19;20383;-47
2022/08/21 01:13:48;;;;;;;3.10;2.33;;;17.80;83.70;;;;;;7375393;19;20368;-47
2022/08/21 01:16:21;;;;;;;6.67;2.30;;;17.90;83.00;;;;;;7375489;19;20371;-47
2022/08/21 01:18:54;;;;;;;4.63;2.10;;;18.10;82.40;;;;;;7378972;19;21017;-44
2022/08/21 01:21:29;;;;;;;5.27;2.33;;;17.70;84.30;;;;;;7374564;19;20391;-46
2022/08/21 01:23:59;;;;;;;4.83;1.70;;;17.80;85.00;;;;;;7383319;19;20376;-47
2022/08/21 01:26:34;;;;;;;2.97;2.00;;;17.80;85.30;;;;;;7382889;19;20904;-47
2022/08/21 01:29:24;;;;;;;4.03;2.13;;;18.10;82.90;;;;;;7387407;19;20422;-47
2022/08/21 01:31:53;;;;;;;5.93;2.50;;;18.10;82.40;;;;;;7376173;19;20425;-48
2022/08/21 01:34:25;;;;;;;3.60;2.10;;;17.90;83.50;;;;;;7387507;19;20371;-46
2022/08/21 01:36:57;;;;;;;2.50;1.87;;;17.80;85.00;;;;;;7387452;19;20944;-47
2022/08/21 01:39:26;;;;;;;5.20;2.43;;;17.70;86.20;;;;;;7384107;19;20376;-47
2022/08/21 01:41:56;;;;;;;2.60;2.20;;;17.80;86.60;;;;;;7382469;19;20372;-45
2022/08/21 01:44:26;;;;;;;6.93;3.10;;;17.80;85.60;;;;;;7382928;19;20432;-45
2022/08/21 01:46:57;;;;;;;4.27;2.13;;;17.80;85.50;;;;;;7379911;19;20420;-48
2022/08/21 01:49:26;;;;;;;3.53;2.10;;;17.80;84.80;;;;;;7387486;19;20387;-45
2022/08/21 01:51:58;;;;;;;5.63;2.27;;;17.80;85.00;;;;;;7384907;19;20464;-45
2022/08/21 01:54:28;;;;;;;3.53;2.13;;;17.80;86.40;;;;;;7378859;19;20376;-47
2022/08/21 01:56:58;;;;;;;3.63;2.40;;;17.80;85.30;;;;;;7382031;19;20400;-44
2022/08/21 01:59:28;;;;;;;5.17;2.83;;;17.70;86.00;;;;;;7382259;19;20364;-45
2022/08/21 02:01:57;;;;;;;3.87;2.13;;;17.80;85.70;;;;;;7373913;19;20448;-45
2022/08/21 02:04:27;;;;;;;6.60;2.30;;;17.90;85.70;;;;;;7378580;19;20777;-44
2022/08/21 02:06:59;;;;;;;5.43;2.13;;;17.90;85.40;;;;;;7383177;19;20380;-47
2022/08/21 02:09:29;;;;;;;4.77;2.30;;;17.90;84.80;;;;;;7379580;19;20897;-47
2022/08/21 02:11:59;;;;;;;3.53;2.30;;;17.90;85.80;;;;;;7379815;19;20521;-47
2022/08/21 02:14:28;;;;;;;2.80;2.00;;;17.80;86.30;;;;;;7379013;19;20377;-47
2022/08/21 02:16:58;;;;;;;2.50;2.03;;;17.80;86.70;;;;;;7380678;19;20384;-47
2022/08/21 02:19:27;;;;;;;4.83;2.73;;;17.80;87.00;;;;;;7378802;19;20380;-45
2022/08/21 02:21:59;;;;;;;3.73;2.00;;;17.90;86.60;;;;;;7379513;19;20371;-46
2022/08/21 02:24:31;;;;;;;6.37;2.23;;;17.80;86.60;;;;;;7379125;19;20382;-47
2022/08/21 02:27:01;;;;;;;4.47;2.40;;;17.70;88.30;;;;;;7380524;19;20947;-46
2022/08/21 02:29:30;;;;;;;4.10;2.43;;;17.80;87.40;;;;;;7380610;19;20380;-46
2022/08/21 02:32:00;;;;;;;6.80;2.90;;;17.60;88.10;;;;;;7372356;19;20388;-46
2022/08/21 02:34:29;;;;;;;2.73;2.23;;;17.60;90.00;;;;;;7378002;19;20744;-46
2022/08/21 02:37:01;;;;;;;4.67;2.50;;;17.30;90.80;;;;;;7379017;19;20808;-46
2022/08/21 02:39:31;;;;;;;3.80;2.47;;;17.30;91.20;;;;;;7379425;19;21188;-47
2022/08/21 02:42:03;;;;;;;3.53;2.50;;;17.10;92.40;;;;;;7380512;19;20376;-46
2022/08/21 02:44:32;;;;;;;3.90;2.50;;;17.30;92.00;;;;;;7376753;19;20389;-46
2022/08/21 02:47:02;;;;;;;4.90;2.50;;;17.50;91.10;;;;;;7375323;19;20778;-46
2022/08/21 02:49:31;;;;;;;6.03;2.43;;;17.30;91.80;;;;;;7377375;19;20411;-45
2022/08/21 02:52:07;;;;;;;3.17;2.60;;;17.50;91.00;;;;;;7377011;19;20372;-46
2022/08/21 02:54:36;;;;;;;4.60;2.60;;;17.50;90.00;;;;;;7380304;19;20760;-46
2022/08/21 02:57:08;;;;;;;3.70;2.50;;;17.30;91.00;;;;;;7380518;19;21162;-45
2022/08/21 02:59:37;;;;;;;7.87;2.23;;;17.00;92.60;;;;;;7379864;19;20406;-45
2022/08/21 03:02:07;;;;;;;5.70;2.77;;;16.70;94.40;;;;;;7371175;19;20432;-46
2022/08/21 03:04:36;;;;;;;3.80;2.40;;;16.70;95.60;;;;;;7375058;19;20466;-46
2022/08/21 03:07:11;;;;;;;3.33;2.27;;;16.70;95.90;;;;;;7379477;19;20376;-46
2022/08/21 03:09:41;;;;;;;3.50;2.33;;;16.70;95.10;;;;;;7379299;19;20731;-46
2022/08/21 03:12:10;;;;;;;3.13;2.30;;;16.60;96.40;;;;;;7372656;19;20380;-47
2022/08/21 03:14:41;;;;;;;5.53;2.87;;;16.50;97.10;;;;;;7375981;19;20368;-46
2022/08/21 03:17:10;;;;;;;3.30;2.30;;;16.80;96.40;;;;;;7379911;19;20974;-45
2022/08/21 03:19:40;;;;;;;4.17;2.90;;;17.00;94.40;;;;;;7382372;19;20420;-46
2022/08/21 03:22:12;;;;;;;3.20;2.77;;;17.00;93.70;;;;;;7381858;19;20916;-46
2022/08/21 03:24:41;;;;;;;4.57;2.40;;;17.00;93.70;;;;;;7379649;19;20387;-46
2022/08/21 03:27:12;;;;;;;5.57;2.90;;;17.00;93.60;;;;;;7379698;19;20364;-46
2022/08/21 03:29:41;;;;;;;4.80;2.40;;;17.10;93.30;;;;;;7381849;19;20415;-45
2022/08/21 03:32:11;;;;;;;3.77;2.83;;;16.70;94.40;;;;;;7374997;19;20373;-46
2022/08/21 03:34:41;;;;;;;5.17;2.73;;;16.40;97.20;;;;;;7378947;19;20489;-45
2022/08/21 03:37:15;;;;;;;3.50;2.10;;;16.60;96.90;;;;;;7375517;19;20375;-46
2022/08/21 03:39:44;;;;;;;6.30;2.50;;;16.70;96.20;;;;;;7377026;19;20417;-46
2022/08/21 03:42:14;;;;;;;5.20;2.60;;;16.90;95.00;;;;;;7381020;19;20899;-46
2022/08/21 03:44:46;;;;;;;4.43;2.60;;;16.90;94.80;;;;;;7379866;19;20388;-46
2022/08/21 03:47:16;;;;;;;3.30;2.97;;;17.00;94.60;;;;;;7372224;19;21738;-46
2022/08/21 03:49:45;;;;;;;4.17;2.77;;;17.20;93.70;;;;;;7371955;19;20422;-46
2022/08/21 03:52:17;;;;;;;6.73;2.90;;;17.10;93.70;;;;;;7373439;19;20399;-46
2022/08/21 03:54:47;;;;;;;4.93;2.90;;;16.80;95.70;;;;;;7382326;19;20382;-46
2022/08/21 03:57:17;;;;;;;3.60;2.97;;;16.50;97.50;;;;;;7376754;19;20384;-46
2022/08/21 03:59:49;;;;;;;3.87;2.50;;;16.50;98.00;;;;;;7376505;19;20427;-46
2022/08/21 04:02:23;;;;;;;3.93;3.00;;;16.70;96.80;;;;;;7371495;19;20846;-45
2022/08/21 04:04:53;;;;;;;9.97;2.83;;;16.80;96.00;;;;;;7372977;19;20388;-46
2022/08/21 04:07:27;;;;;;;4.20;2.27;;;16.90;94.70;;;;;;7377809;19;20481;-46
2022/08/21 04:09:56;;;;;;;3.37;2.63;;;17.00;93.90;;;;;;7375770;19;20384;-46
2022/08/21 04:12:26;;;;;;;5.50;3.63;;;17.10;93.30;;;;;;7375508;19;21210;-46
2022/08/21 04:14:58;;;;;;;2.93;2.70;;;17.20;92.80;;;;;;7377580;19;20479;-46
2022/08/21 04:17:28;;;;;;;5.93;3.07;;;17.30;92.90;;;;;;7371411;19;20463;-46
2022/08/21 04:19:57;;;;;;;4.70;2.80;;;17.30;92.10;;;;;;7376282;19;20431;-46
2022/08/21 04:22:29;;;;;;;7.07;2.93;;;17.40;91.70;;;;;;7373392;19;20920;-46
2022/08/21 04:24:59;;;;;;;7.20;3.00;;;17.40;91.60;;;;;;7375133;19;20368;-46
2022/08/21 04:27:28;;;;;;;3.87;2.80;;;17.40;91.80;;;;;;7368814;19;20380;-46
2022/08/21 04:30:00;;;;;;;4.20;2.97;;;17.30;92.50;;;;;;7376589;19;21450;-46
2022/08/21 04:32:30;;;;;;;3.27;2.97;;;17.30;92.20;;;;;;7367883;19;20421;-46
2022/08/21 04:35:05;;;;;;;4.40;2.60;;;17.40;92.20;;;;;;7371726;19;20380;-46
2022/08/21 04:37:37;;;;;;;8.20;2.83;;;17.00;93.60;;;;;;7378198;19;20391;-46
2022/08/21 04:40:09;;;;;;;5.43;3.83;;;17.10;94.50;;;;;;7380139;19;20372;-46
2022/08/21 04:42:49;;;;;;;4.10;2.90;;;17.10;93.80;;;;;;7375412;19;20415;-45
2022/08/21 04:45:24;;;;;;;3.30;2.90;;;16.90;95.20;;;;;;7374522;19;20387;-46
2022/08/21 04:47:54;;;;;;;8.67;3.27;;;16.90;94.80;;;;;;7374235;19;20406;-46
2022/08/21 04:50:27;;;;;;;4.47;3.00;;;16.80;95.70;;;;;;7378207;19;21379;-46
2022/08/21 04:53:12;;;;;;;4.43;2.77;;;16.70;95.90;;;;;;7376601;19;21046;-46
2022/08/21 04:55:43;;;;;;;6.67;2.80;;;16.70;97.00;;;;;;7378074;19;20951;-45
2022/08/21 04:58:15;;;;;;;5.97;2.80;;;16.80;97.10;;;;;;7380299;19;20376;-46
2022/08/21 05:00:47;;;;;;;3.80;2.63;;;17.00;96.00;;;;;;7379495;19;20415;-46
2022/08/21 05:03:21;;;;;;;3.87;3.00;;;17.10;94.60;;;;;;7377726;19;20762;-46
2022/08/21 05:05:50;;;;;;;9.33;2.83;;;17.20;94.10;;;;;;7380285;19;20776;-46
2022/08/21 05:08:27;;;;;;;5.23;2.90;;;17.10;94.80;;;;;;7383379;19;21085;-46
2022/08/21 05:10:58;;;;;;;3.20;2.90;;;17.10;95.60;;;;;;7380489;19;20821;-46
2022/08/21 05:13:27;;;;;;;4.13;3.03;;;17.10;96.00;;;;;;7380608;19;20867;-46
2022/08/21 05:15:57;;;;;;;3.57;2.93;;;17.20;95.20;;;;;;7385180;19;20465;-47
2022/08/21 05:18:26;;;;;;;5.40;2.60;;;17.30;94.60;;;;;;7378678;19;20376;-46
2022/08/21 05:20:56;;;;;;;5.57;2.63;;;17.40;94.50;;;;;;7383730;19;20383;-46
2022/08/21 05:23:29;;;;;;;5.73;2.67;;;17.60;92.80;;;;;;7385221;19;20416;-46
2022/08/21 05:25:58;;;;;;;4.23;2.93;;;17.60;91.60;;;;;;7381951;19;20372;-46
2022/08/21 05:28:28;;;;;;;3.37;2.57;;;17.60;92.00;;;;;;7382104;19;20403;-46
2022/08/21 05:30:57;;;;;;;3.70;2.97;;;17.60;91.60;;;;;;7377624;19;20363;-46
2022/08/21 05:33:27;;;;;;;5.10;2.60;;;17.70;91.30;;;;;;7377587;19;20391;-46
2022/08/21 05:35:58;;;;;;;7.17;3.10;;;17.70;91.00;;;;;;7383680;19;20391;-46
2022/08/21 05:38:30;;;;;;;4.53;3.40;;;17.50;91.60;;;;;;7380435;19;20941;-46
2022/08/21 05:40:59;;;;;;;3.33;2.53;;;17.30;93.40;;;;;;7383555;19;20714;-46
2022/08/21 05:43:32;;;;;;;6.30;3.13;;;17.20;94.60;;;;;;7378340;19;20416;-46
2022/08/21 05:46:04;;;;;;;7.40;3.50;;;17.00;95.80;;;;;;7382712;19;20416;-46
2022/08/21 05:48:34;;;;;;;4.07;2.60;;;16.90;95.90;;;;;;7382772;19;21022;-46
2022/08/21 05:51:08;;;;;;;3.67;2.70;;;16.90;97.10;;;;;;7385179;19;20933;-46
2022/08/21 05:53:41;;;;;;;3.97;2.60;;;17.10;95.70;;;;;;7381945;19;20430;-46
2022/08/21 05:56:12;;;;;;;4.27;3.07;;;17.40;94.20;;;;;;7386950;19;20387;-46
2022/08/21 05:58:41;;;;;;;3.93;2.93;;;17.50;93.10;;;;;;7381843;19;20836;-46
2022/08/21 06:01:11;;;;;;;6.33;2.90;;;17.50;92.90;;;;;;7381258;19;20531;-46
2022/08/21 06:03:43;;;;;;;5.80;2.40;;;17.70;92.70;;;;;;7378654;19;21059;-46
2022/08/21 06:06:13;;;;;;;5.70;3.37;;;17.80;92.30;;;;;;7377142;19;20465;-46
2022/08/21 06:08:45;;;;;;;5.67;3.10;;;17.80;92.10;;;;;;7381587;19;20387;-46
2022/08/21 06:11:17;;;;;;;3.97;3.00;;;17.80;92.10;;;;;;7372310;19;20411;-46
2022/08/21 06:13:47;;;;;;;3.67;3.00;;;17.70;92.90;;;;;;7379350;19;20388;-46
2022/08/21 06:16:19;;;;;;;6.73;2.80;;;17.60;93.30;;;;;;7379322;19;20526;-46
2022/08/21 06:18:48;;;;;;;5.70;3.30;;;17.40;93.80;;;;;;7379528;19;21085;-46
2022/08/21 06:21:18;;;;;;;4.10;3.10;;;17.50;94.90;;;;;;7379331;19;20966;-46
2022/08/21 06:23:50;;;;;;;5.20;2.50;;;17.90;94.20;;;;;;7373483;19;20416;-48
2022/08/21 06:26:21;;;;;;;3.73;3.10;;;18.10;91.70;;;;;;7360955;19;20380;-46
2022/08/21 06:28:50;;;;;;;5.13;2.70;;;18.20;91.50;;;;;;7379766;19;20901;-46
2022/08/21 06:31:22;;;;;;;5.93;2.87;;;18.50;90.70;;;;;;7383272;19;20380;-46
2022/08/21 06:33:52;;;;;;;4.27;2.87;;;18.90;87.70;;;;;;7379272;19;20377;-46
2022/08/21 06:36:22;;;;;;;3.90;2.87;;;19.10;86.60;;;;;;7379222;19;20372;-46
2022/08/21 06:38:54;;;;;;;6.03;2.97;;;19.30;84.60;;;;;;7382198;19;20384;-46
2022/08/21 06:41:26;;;;;;;8.97;3.77;;;19.50;82.10;;;;;;7381297;19;20678;-47
2022/08/21 06:43:58;;;;;;;4.17;2.93;;;19.70;80.40;;;;;;7381135;19;20470;-46
2022/08/21 06:46:30;;;;;;;4.27;2.70;;;19.80;79.40;;;;;;7371501;19;20408;-46
2022/08/21 06:48:59;;;;;;;4.50;2.60;;;19.90;79.00;;;;;;7380535;19;20384;-46
2022/08/21 06:51:31;;;;;;;7.37;2.83;;;20.20;77.80;;;;;;7375301;19;20356;-46
2022/08/21 06:54:03;;;;;;;5.07;3.23;;;20.30;75.40;;;;;;7368216;19;20384;-47
2022/08/21 06:56:33;;;;;;;5.20;2.63;;;20.50;73.20;;;;;;7376613;19;20380;-46
2022/08/21 06:59:05;;;;;;;3.63;2.30;;;20.60;72.50;;;;;;7379380;19;20487;-47
2022/08/21 07:01:35;;;;;;;4.37;3.13;;;20.80;71.60;;;;;;7376809;19;20813;-46
2022/08/21 07:04:09;;;;;;;5.87;3.27;;;21.10;72.50;;;;;;7381364;19;20529;-47
2022/08/21 07:06:39;;;;;;;4.13;2.70;;;21.30;72.40;;;;;;7382052;19;20459;-47
2022/08/21 07:09:11;;;;;;;4.33;2.73;;;21.50;68.90;;;;;;7378725;19;20398;-47
2022/08/21 07:11:40;;;;;;;3.73;2.70;;;21.60;65.10;;;;;;7383587;19;20372;-46
2022/08/21 07:14:10;;;;;;;5.77;3.23;;;21.70;65.40;;;;;;7382104;19;20384;-47
2022/08/21 07:16:42;;;;;;;4.33;3.00;;;21.80;64.50;;;;;;7368787;19;20388;-47
2022/08/21 07:19:11;;;;;;;4.60;3.40;;;21.90;62.80;;;;;;7379627;19;20383;-47
2022/08/21 07:21:40;;;;;;;4.43;2.50;;;22.00;61.00;;;;;;7381555;19;20380;-47
2022/08/21 07:24:13;;;;;;;3.23;2.73;;;22.20;61.50;;;;;;7378123;19;20910;-47
2022/08/21 07:26:42;;;;;;;5.73;3.20;;;22.30;60.80;;;;;;7375982;19;20863;-47
2022/08/21 07:29:12;;;;;;;3.80;3.17;;;22.40;59.90;;;;;;7381679;19;21041;-46
2022/08/21 07:31:42;;;;;;;3.90;3.00;;;22.40;59.50;;;;;;7383102;19;20383;-47
2022/08/21 07:34:11;;;;;;;6.60;3.30;;;22.50;59.60;;;;;;7380803;19;20421;-47
2022/08/21 07:36:41;;;;;;;7.70;3.50;;;22.70;59.80;;;;;;7383944;19;20380;-47
2022/08/21 07:39:13;;;;;;;6.10;3.30;;;23.00;62.00;;;;;;7384526;19;20464;-46
2022/08/21 07:41:42;;;;;;;6.43;2.43;;;23.30;59.30;;;;;;7381280;19;20427;-47
2022/08/21 07:44:12;;;;;;;4.67;3.00;;;23.50;59.60;;;;;;7381544;19;20974;-47
2022/08/21 07:46:41;;;;;;;4.63;3.10;;;23.70;58.80;;;;;;7382586;19;20376;-47
2022/08/21 07:49:13;;;;;;;5.80;3.20;;;23.80;56.60;;;;;;7367733;19;20368;-47
2022/08/21 07:51:42;;;;;;;4.63;3.00;;;23.90;56.50;;;;;;7368435;19;20380;-47
2022/08/21 07:54:14;;;;;;;5.20;3.07;;;24.10;55.70;;;;;;7372863;19;20377;-48
2022/08/21 07:56:45;;;;;;;6.00;2.77;;;24.10;56.10;;;;;;7367959;19;20384;-47
2022/08/21 07:59:14;;;;;;;5.30;2.77;;;24.30;56.60;;;;;;7379073;19;20462;-47
2022/08/21 08:01:46;;;;;;;4.20;2.90;;;24.50;56.20;;;;;;7362296;19;20439;-48
2022/08/21 08:04:18;;;;;;;4.53;2.93;;;24.60;53.80;;;;;;7368667;19;20396;-47
2022/08/21 08:06:51;;;;;;;4.37;3.30;;;24.70;54.80;;;;;;7377082;19;20946;-48
2022/08/21 08:09:23;;;;;;;6.30;2.93;;;24.90;53.80;;;;;;7380116;19;20925;-47
2022/08/21 08:11:52;;;;;;;6.80;3.50;;;25.00;53.20;;;;;;7380757;19;20372;-47
2022/08/21 08:14:22;;;;;;;5.87;3.07;;;25.20;53.30;;;;;;7381546;19;20504;-48
2022/08/21 08:16:54;;;;;;;4.20;2.60;;;25.30;52.80;;;;;;7380894;19;21198;-47
2022/08/21 08:19:23;;;;;;;4.13;2.90;;;25.50;52.30;;;;;;7383049;19;20380;-47
2022/08/21 08:21:53;;;;;;;5.23;3.10;;;25.70;50.90;;;;;;7380706;19;20402;-48
2022/08/21 08:24:25;;;;;;;6.23;3.07;;;25.70;51.70;;;;;;7382319;19;20372;-48
2022/08/21 08:26:56;;;;;;;5.77;3.63;;;25.90;50.90;;;;;;7382693;19;20902;-47
2022/08/21 08:29:26;;;;;;;5.67;3.73;;;26.00;50.10;;;;;;7383806;19;20988;-48
2022/08/21 08:31:55;;;;;;;6.07;4.10;;;26.20;49.80;;;;;;7382283;19;20376;-47
2022/08/21 08:34:25;;;;;;;3.53;2.67;;;26.50;49.10;;;;;;7380501;19;20399;-47
2022/08/21 08:36:57;;;;;;;6.83;3.10;;;26.70;49.30;;;;;;7380865;19;20371;-48
2022/08/21 08:39:30;;;;;;;4.83;2.63;;;26.90;48.50;;;;;;7381671;19;20898;-48
2022/08/21 08:42:10;;;;;;;4.90;2.80;;;27.00;47.40;;;;;;7383167;19;20364;-48
2022/08/21 08:44:40;;;;;;;3.47;2.83;;;27.30;47.30;;;;;;7376100;19;21308;-48
2022/08/21 08:47:13;;;;;;;5.33;3.00;;;27.40;45.10;;;;;;7381566;19;20376;-48
2022/08/21 08:49:52;;;;;;;3.87;2.60;;;27.40;46.50;;;;;;7381114;19;20364;-48
2022/08/21 08:52:31;;;;;;;4.23;2.50;;;27.60;44.40;;;;;;7380865;19;20505;-47
2022/08/21 08:55:06;;;;;;;3.77;2.53;;;27.90;44.70;;;;;;7382566;19;20391;-48
2022/08/21 08:57:40;;;;;;;3.13;2.80;;;28.20;44.90;;;;;;7384040;19;20376;-48
2022/08/21 09:00:13;;;;;;;5.07;2.67;;;28.40;44.20;;;;;;7380676;19;20416;-47
2022/08/21 09:02:45;;;;;;;4.43;2.93;;;28.80;43.80;;;;;;7379539;19;20379;-48
2022/08/21 09:05:25;;;;;;;4.10;2.70;;;29.00;43.70;;;;;;7381953;19;20937;-48
2022/08/21 09:08:23;;;;;;;6.17;3.07;;;29.60;43.40;;;;;;7382653;19;20372;-48
2022/08/21 09:11:04;;;;;;;4.40;2.90;;;29.80;42.90;;;;;;7380279;19;20376;-48
2022/08/21 09:13:48;;;;;;;6.07;2.67;;;30.30;42.50;;;;;;7381352;19;20372;-48
2022/08/21 09:16:28;;;;;;;5.83;3.50;;;30.70;41.80;;;;;;7381640;19;20396;-48
2022/08/21 09:19:05;;;;;;;4.60;2.97;;;30.90;41.60;;;;;;7381360;19;20376;-48
2022/08/21 09:21:43;;;;;;;2.87;2.57;;;31.20;40.90;;;;;;7377665;19;20405;-48
2022/08/21 09:24:27;;;;;;;3.13;2.53;;;31.60;40.60;;;;;;7381673;19;20824;-48
2022/08/21 09:27:05;;;;;;;4.87;3.20;;;32.10;38.50;;;;;;7383677;19;20942;-48
2022/08/21 09:29:39;;;;;;;4.43;2.50;;;32.60;37.30;;;;;;7382862;19;20375;-48
2022/08/21 09:32:18;;;;;;;5.80;3.23;;;33.00;37.00;;;;;;7382755;19;20418;-48
2022/08/21 09:34:59;;;;;;;3.40;2.60;;;33.30;36.80;;;;;;7380217;19;20384;-48
2022/08/21 09:37:31;;;;;;;3.70;2.57;;;33.80;36.00;;;;;;7379917;19;20711;-48
2022/08/21 09:40:01;;;;;;;4.43;3.00;;;33.90;34.60;;;;;;7381626;19;20392;-48
2022/08/21 09:42:34;;;;;;;8.70;3.13;;;33.80;35.00;;;;;;7381190;19;20398;-49
2022/08/21 09:45:13;;;;;;;9.73;4.10;;;33.70;34.00;;;;;;7382417;19;20374;-48
2022/08/21 09:47:43;;;;;;;4.93;3.27;;;33.20;35.20;;;;;;7389584;19;20446;-48
2022/08/21 09:50:16;;;;;;;8.50;3.47;;;32.60;36.20;;;;;;7387555;19;20378;-48
2022/08/21 09:52:51;;;;;;;9.10;3.40;;;32.50;36.40;;;;;;7390380;19;20375;-48
2022/08/21 09:58:38;;;;;;;4.93;3.43;;;32.30;37.10;;;;;;7386201;19;20748;-48
2022/08/21 10:01:09;;;;;;;9.50;3.20;;;32.50;35.50;;;;;;7385880;19;20438;-48
2022/08/21 10:03:38;;;;;;;6.47;3.13;;;33.30;35.20;;;;;;7382646;19;20375;-49
2022/08/21 10:06:13;;;;;;;3.43;2.63;;;34.60;33.50;;;;;;7384802;19;20372;-49
2022/08/21 10:08:44;;;;;;;4.80;2.83;;;35.20;32.70;;;;;;7387038;19;20392;-47
2022/08/21 10:11:17;;;;;;;4.40;2.80;;;35.30;31.70;;;;;;7385913;19;20906;-47
2022/08/21 10:13:58;;;;;;;5.33;3.60;;;35.60;31.50;;;;;;7385737;19;20368;-47
2022/08/21 10:16:41;;;;;;;4.93;3.13;;;35.60;31.80;;;;;;7385888;19;20430;-47
2022/08/21 10:19:21;;;;;;;5.87;3.07;;;36.20;31.30;;;;;;7386253;19;20383;-47
2022/08/21 10:22:02;;;;;;;6.97;2.80;;;37.20;30.20;;;;;;7386817;19;20383;-47
2022/08/21 10:24:39;;;;;;;7.63;3.40;;;37.50;29.70;;;;;;7386769;19;20428;-47
2022/08/21 10:27:18;;;;;;;7.30;2.90;;;38.10;29.50;;;;;;7387514;19;20544;-47
2022/08/21 10:29:58;;;;;;;4.87;2.83;;;38.50;28.40;;;;;;7389465;19;20910;-47
2022/08/21 10:32:59;;;;;;;4.10;3.07;;;38.70;28.70;;;;;;7382016;19;20375;-47
2022/08/21 10:35:31;;;;;;;3.90;3.07;;;39.00;28.40;;;;;;7384427;19;20417;-47
2022/08/21 10:38:20;;;;;;;4.33;2.87;;;39.30;27.70;;;;;;7388158;19;20395;-48
2022/08/21 10:40:58;;;;;;;4.10;2.90;;;40.20;27.00;;;;;;7384472;19;20388;-47
2022/08/21 10:43:39;;;;;;;4.43;3.10;;;40.10;27.00;;;;;;7386726;19;20388;-48
2022/08/21 10:46:20;;;;;;;4.57;2.60;;;40.80;26.40;;;;;;7385707;19;20404;-47
2022/08/21 10:48:57;;;;;;;5.80;2.83;;;41.00;26.00;;;;;;7384086;19;20370;-47
2022/08/21 10:51:35;;;;;;;6.43;3.20;;;40.70;26.20;;;;;;7385968;19;20380;-47
2022/08/21 10:54:15;;;;;;;4.83;2.90;;;40.80;26.20;;;;;;7385679;19;20380;-48
2022/08/21 10:56:45;;;;;;;3.80;2.70;;;41.10;26.20;;;;;;7384407;19;20391;-48
2022/08/21 10:59:28;;;;;;;5.93;3.20;;;41.70;25.50;;;;;;7384750;19;20377;-47
2022/08/21 11:02:04;;;;;;;3.40;3.10;;;41.80;25.00;;;;;;7384101;19;20444;-48
2022/08/21 11:04:43;;;;;;;3.47;3.13;;;40.10;26.20;;;;;;7384778;19;20376;-47
2022/08/21 11:07:20;;;;;;;6.80;4.67;;;38.60;27.50;;;;;;7384950;19;20419;-47
2022/08/21 11:09:54;;;;;;;6.17;3.40;;;39.40;27.40;;;;;;7386240;19;20733;-47
2022/08/21 11:12:31;;;;;;;5.40;3.50;;;39.60;26.50;;;;;;7383493;19;20444;-47
2022/08/21 11:15:07;;;;;;;4.30;3.60;;;39.90;26.40;;;;;;7382679;19;20372;-47
2022/08/21 11:17:46;;;;;;;4.33;2.80;;;39.80;26.40;;;;;;7383908;19;20380;-49
2022/08/21 11:20:23;;;;;;;6.07;3.80;;;40.60;26.10;;;;;;7385413;19;20364;-48
2022/08/21 11:22:59;;;;;;;4.47;2.73;;;40.80;26.00;;;;;;7383025;19;20380;-47
2022/08/21 11:25:34;;;;;;;4.83;3.40;;;40.10;25.70;;;;;;7386211;19;20384;-47
2022/08/21 11:28:08;;;;;;;3.60;2.97;;;37.80;27.50;;;;;;7386429;19;20374;-48
2022/08/21 11:30:47;;;;;;;5.67;3.20;;;37.60;28.30;;;;;;7381802;19;20364;-47
2022/08/21 11:33:35;;;;;;;6.70;3.40;;;38.30;27.70;;;;;;7385161;19;20383;-48
2022/08/21 11:36:15;;;;;;;5.90;3.50;;;39.10;26.60;;;;;;7378476;19;20368;-48
2022/08/21 11:38:49;;;;;;;5.23;3.53;;;39.60;26.40;;;;;;7384335;19;20392;-48
2022/08/21 11:41:29;;;;;;;3.80;3.07;;;40.40;26.10;;;;;;7380633;19;20372;-48
2022/08/21 11:44:06;;;;;;;3.80;2.90;;;40.50;25.60;;;;;;7383996;19;20398;-48
2022/08/21 11:46:42;;;;;;;3.93;3.00;;;40.80;26.00;;;;;;7383148;19;20920;-48
2022/08/21 11:49:37;;;;;;;5.57;3.30;;;41.30;25.10;;;;;;7381950;19;20376;-48
2022/08/21 11:52:18;;;;;;;5.20;2.93;;;41.90;24.60;;;;;;7383321;19;20917;-48
2022/08/21 11:54:53;;;;;;;3.43;2.67;;;42.50;24.30;;;;;;7383443;19;20380;-48
2022/08/21 11:57:27;;;;;;;4.03;2.73;;;42.80;23.80;;;;;;7380802;19;20411;-48
2022/08/21 12:00:04;;;;;;;4.83;3.03;;;42.50;24.10;;;;;;7383353;19;20401;-48
2022/08/21 12:02:47;;;;;;;4.37;3.07;;;42.70;23.60;;;;;;7381746;19;20904;-49
2022/08/21 12:05:32;;;;;;;2.90;2.60;;;43.00;23.60;;;;;;7380619;19;20733;-49
2022/08/21 12:08:07;;;;;;;3.60;2.70;;;43.60;23.30;;;;;;7381385;19;20456;-49
2022/08/21 12:10:42;;;;;;;3.80;2.70;;;44.00;23.20;;;;;;7383147;19;20415;-49
2022/08/21 12:13:24;;;;;;;3.30;2.50;;;44.30;22.90;;;;;;7380581;19;20372;-49
2022/08/21 12:15:54;;;;;;;4.97;2.87;;;43.70;23.00;;;;;;7383024;19;20386;-49
2022/08/21 12:18:32;;;;;;;3.40;2.27;;;43.70;23.20;;;;;;7383313;19;20425;-49
2022/08/21 12:21:20;;;;;;;4.30;2.40;;;43.60;23.20;;;;;;7383458;19;20394;-49
2022/08/21 12:24:00;;;;;;;3.70;2.40;;;43.90;23.20;;;;;;7382129;19;20398;-49
2022/08/21 12:26:32;;;;;;;3.10;2.80;;;43.30;23.60;;;;;;7382294;19;20860;-49
2022/08/21 12:29:14;;;;;;;3.50;2.90;;;43.70;23.30;;;;;;7381836;19;20451;-49
2022/08/21 12:31:53;;;;;;;2.90;2.30;;;43.60;23.10;;;;;;7377731;19;20825;-49
2022/08/21 12:34:25;;;;;;;4.33;2.40;;;43.30;23.20;;;;;;7382821;19;20921;-48
2022/08/21 12:37:03;;;;;;;5.50;2.97;;;42.00;23.90;;;;;;7380766;19;20380;-48
2022/08/21 12:39:35;;;;;;;4.27;2.80;;;40.30;24.80;;;;;;7382651;19;20906;-48
2022/08/21 12:42:10;;;;;;;5.50;3.33;;;38.50;26.20;;;;;;7380110;19;20888;-48
2022/08/21 12:44:47;;;;;;;4.20;3.10;;;36.90;27.00;;;;;;7377715;19;20360;-48
2022/08/21 12:47:23;;;;;;;5.50;3.47;;;36.10;28.10;;;;;;7384171;19;20398;-48
2022/08/21 12:49:58;;;;;;;4.87;3.00;;;35.90;28.30;;;;;;7380817;19;20393;-48
2022/08/21 12:52:35;;;;;;;4.90;3.47;;;36.10;27.90;;;;;;7380525;19;20506;-48
2022/08/21 12:55:08;;;;;;;3.97;2.80;;;36.10;28.50;;;;;;7381567;19;20376;-48
2022/08/21 12:57:39;;;;;;;4.60;2.50;;;35.80;28.20;;;;;;7382331;19;20762;-48
2022/08/21 13:00:14;;;;;;;5.13;2.93;;;35.20;29.20;;;;;;7381264;19;20462;-48
2022/08/21 13:02:49;;;;;;;4.10;2.63;;;36.30;29.00;;;;;;7382434;19;20380;-48
2022/08/21 13:05:30;;;;;;;4.90;3.13;;;37.80;27.20;;;;;;7379677;19;20436;-48
2022/08/21 13:08:12;;;;;;;4.33;2.93;;;39.70;25.60;;;;;;7383477;19;20948;-49
2022/08/21 13:10:43;;;;;;;3.20;2.80;;;40.60;25.10;;;;;;7378959;19;20375;-49
2022/08/21 13:13:20;;;;;;;3.97;3.13;;;41.10;24.90;;;;;;7380963;19;20421;-49
2022/08/21 13:15:50;;;;;;;4.20;2.80;;;41.20;24.50;;;;;;7379663;19;20404;-49
2022/08/21 13:18:25;;;;;;;6.10;3.07;;;41.10;24.20;;;;;;7358702;19;20415;-49
2022/08/21 13:21:05;;;;;;;3.80;2.93;;;41.40;24.50;;;;;;7387221;19;20375;-49